Fort Severn Airport
CYER : now visible

Aeroporto :











RITROVATECI SU...

 
LOGIN :

Iscrizione | Disclaimer

   EN    FR    IT 

 









Sommario :    VFR   VFR Marginale   IFR   IFR Intensivo   IFR Molto Intensivo
Visibilità : 
Base nubi : 
>= 8 km
>= 3000ft
5 / 8 km
1000 / 3000 ft
1500m / 5 km
500 / 1000 ft
800 / 1500m
200 / 500 ft
< 800m
< 200 ft
Simboli :   Temporali  Nebbia  Neve Forte  Precipitazioni Forti  Vento > 20 kt






- Altitudine del aeroporto : 48 ft
- Codice IATA : YER


CYER - Fort Severn

ULTIMO METAR :
  • 272116Z AUTO 23004KT 200V270 9SM FEW007 OVC070 M12/M12 A3011 RMK SLP200

METARs OBSOLETI :
  • 272105Z AUTO 22003KT 210V270 9SM -SN SCT007 OVC070 M12/M12 A3011 RMK SLP200
  • 272000Z AUTO 30006KT 270V330 9SM -SN OVC007 M12/M12 A3013 RMK SLP205
  • 271949Z AUTO 30005KT 6SM -SN OVC007 M11/M12 A3013 RMK SLP205
  • 271908Z AUTO 30005KT 9SM -SN OVC005 M11/M12 A3013 RMK SLP205
  • 271850Z AUTO 29006KT 6SM -SN OVC003 M11/M12 A3013 RMK SLP206
  • 271836Z AUTO 30006KT 5SM -SN OVC003 M11/M11 A3013 RMK SLP206

Previsioni scadute.



MetMap, La meteo Aeronautica in un colpo d'occhio ! - Copyright ORBIFLY Dicembre 2007 - Disclaimer

ORBIFLY MET'MAP TEAM :

Programmazione e sviluppo : Alexandra Zaïnal
Concezione : Baudouin d'Aumeries
Aiuto per la programmazione : Marc-Olivier Méhu
Supporto tecnico e logistico : Manuel Goepfert
Aiuto per la traduzione : Arnaldo La Scala

Contatto : metmap@orbifly.com




FONTI E CREDITI :

   NOAA       Earth
Advisory